sensor_id;sensor_type;location;lat;lon;timestamp;pressure;altitude;pressure_sealevel;temperature;humidity
21555;BME280;10938;44.794;-0.676;2023-02-19T00:01:30;102369.97;;;15.48;88.20
21555;BME280;10938;44.794;-0.676;2023-02-19T00:03:58;102369.84;;;15.43;88.26
21555;BME280;10938;44.794;-0.676;2023-02-19T00:06:26;102381.16;;;15.39;88.59
21555;BME280;10938;44.794;-0.676;2023-02-19T00:08:52;102379.47;;;15.41;88.94
21555;BME280;10938;44.794;-0.676;2023-02-19T00:11:20;102373.94;;;15.29;90.62
21555;BME280;10938;44.794;-0.676;2023-02-19T00:13:47;102370.44;;;15.28;91.28
21555;BME280;10938;44.794;-0.676;2023-02-19T00:16:33;102373.28;;;15.39;89.67
21555;BME280;10938;44.794;-0.676;2023-02-19T00:19:01;102380.25;;;15.38;88.64
21555;BME280;10938;44.794;-0.676;2023-02-19T00:21:28;102380.09;;;15.29;90.15
21555;BME280;10938;44.794;-0.676;2023-02-19T00:23:59;102376.56;;;15.27;90.05
21555;BME280;10938;44.794;-0.676;2023-02-19T00:26:25;102377.34;;;15.25;89.37
21555;BME280;10938;44.794;-0.676;2023-02-19T00:28:52;102371.97;;;15.19;89.44
21555;BME280;10938;44.794;-0.676;2023-02-19T00:31:26;102374.63;;;15.19;88.91
21555;BME280;10938;44.794;-0.676;2023-02-19T00:33:54;102376.28;;;15.14;88.74
21555;BME280;10938;44.794;-0.676;2023-02-19T00:36:20;102370.06;;;15.10;88.79
21555;BME280;10938;44.794;-0.676;2023-02-19T00:38:46;102367.38;;;15.07;89.40
21555;BME280;10938;44.794;-0.676;2023-02-19T00:41:13;102366.44;;;15.05;89.10
21555;BME280;10938;44.794;-0.676;2023-02-19T00:43:56;102356.72;;;15.01;89.02
21555;BME280;10938;44.794;-0.676;2023-02-19T00:46:26;102358.50;;;15.01;88.75
21555;BME280;10938;44.794;-0.676;2023-02-19T00:48:52;102353.06;;;14.93;89.43
21555;BME280;10938;44.794;-0.676;2023-02-19T00:51:19;102348.69;;;14.93;90.27
21555;BME280;10938;44.794;-0.676;2023-02-19T00:53:45;102350.25;;;14.85;90.54
21555;BME280;10938;44.794;-0.676;2023-02-19T00:56:12;102349.53;;;14.91;90.50
21555;BME280;10938;44.794;-0.676;2023-02-19T00:58:38;102347.69;;;14.88;90.72
21555;BME280;10938;44.794;-0.676;2023-02-19T01:01:05;102342.31;;;14.82;91.17
21555;BME280;10938;44.794;-0.676;2023-02-19T01:03:32;102353.72;;;14.83;90.49
21555;BME280;10938;44.794;-0.676;2023-02-19T01:05:58;102351.97;;;14.83;90.04
21555;BME280;10938;44.794;-0.676;2023-02-19T01:08:23;102353.59;;;14.78;89.16
21555;BME280;10938;44.794;-0.676;2023-02-19T01:10:49;102346.50;;;14.73;89.33
21555;BME280;10938;44.794;-0.676;2023-02-19T01:13:15;102350.72;;;14.68;89.79
21555;BME280;10938;44.794;-0.676;2023-02-19T01:15:41;102349.75;;;14.63;91.00
21555;BME280;10938;44.794;-0.676;2023-02-19T01:18:07;102353.47;;;14.71;90.32
21555;BME280;10938;44.794;-0.676;2023-02-19T01:20:32;102355.13;;;14.69;89.85
21555;BME280;10938;44.794;-0.676;2023-02-19T01:22:58;102345.28;;;14.59;91.54
21555;BME280;10938;44.794;-0.676;2023-02-19T01:25:23;102340.94;;;14.59;90.47
21555;BME280;10938;44.794;-0.676;2023-02-19T01:27:49;102340.88;;;14.56;90.23
21555;BME280;10938;44.794;-0.676;2023-02-19T01:30:14;102341.63;;;14.51;89.91
21555;BME280;10938;44.794;-0.676;2023-02-19T01:32:40;102343.16;;;14.42;89.31
21555;BME280;10938;44.794;-0.676;2023-02-19T01:35:06;102343.84;;;14.34;89.60
21555;BME280;10938;44.794;-0.676;2023-02-19T01:37:34;102353.28;;;14.27;90.20
21555;BME280;10938;44.794;-0.676;2023-02-19T01:40:00;102362.75;;;14.22;90.72
21555;BME280;10938;44.794;-0.676;2023-02-19T01:42:25;102361.78;;;14.19;90.30
21555;BME280;10938;44.794;-0.676;2023-02-19T01:47:38;102363.00;;;13.97;95.81
21555;BME280;10938;44.794;-0.676;2023-02-19T01:50:04;102356.28;;;13.74;99.61
21555;BME280;10938;44.794;-0.676;2023-02-19T01:52:33;102354.13;;;13.59;100.00
21555;BME280;10938;44.794;-0.676;2023-02-19T01:55:02;102357.94;;;13.70;100.00
21555;BME280;10938;44.794;-0.676;2023-02-19T01:57:32;102353.28;;;13.93;100.00
21555;BME280;10938;44.794;-0.676;2023-02-19T02:05:12;102334.25;;;14.02;98.69
21555;BME280;10938;44.794;-0.676;2023-02-19T02:07:44;102339.75;;;14.11;99.41
21555;BME280;10938;44.794;-0.676;2023-02-19T02:10:28;102342.78;;;14.27;98.15
21555;BME280;10938;44.794;-0.676;2023-02-19T02:12:56;102328.97;;;14.34;97.38
21555;BME280;10938;44.794;-0.676;2023-02-19T02:15:23;102344.88;;;14.06;100.00
21555;BME280;10938;44.794;-0.676;2023-02-19T02:17:59;102339.38;;;13.96;100.00
21555;BME280;10938;44.794;-0.676;2023-02-19T02:20:40;102339.88;;;13.81;100.00
21555;BME280;10938;44.794;-0.676;2023-02-19T02:25:58;102337.56;;;13.94;100.00
21555;BME280;10938;44.794;-0.676;2023-02-19T02:31:41;102329.69;;;14.29;100.00
21555;BME280;10938;44.794;-0.676;2023-02-19T02:34:14;102326.34;;;14.34;100.00
21555;BME280;10938;44.794;-0.676;2023-02-19T02:36:43;102330.59;;;14.29;100.00
21555;BME280;10938;44.794;-0.676;2023-02-19T02:39:13;102329.16;;;14.08;100.00
21555;BME280;10938;44.794;-0.676;2023-02-19T02:41:44;102333.31;;;13.98;100.00
21555;BME280;10938;44.794;-0.676;2023-02-19T02:44:13;102321.97;;;13.99;100.00
21555;BME280;10938;44.794;-0.676;2023-02-19T02:46:41;102320.88;;;13.91;100.00
21555;BME280;10938;44.794;-0.676;2023-02-19T02:49:15;102319.34;;;13.99;100.00
21555;BME280;10938;44.794;-0.676;2023-02-19T02:51:46;102324.44;;;13.93;100.00
21555;BME280;10938;44.794;-0.676;2023-02-19T02:54:25;102326.91;;;13.87;100.00
21555;BME280;10938;44.794;-0.676;2023-02-19T02:57:12;102326.09;;;13.89;100.00
21555;BME280;10938;44.794;-0.676;2023-02-19T02:59:41;102321.56;;;13.50;100.00
21555;BME280;10938;44.794;-0.676;2023-02-19T03:02:22;102336.38;;;13.18;100.00
21555;BME280;10938;44.794;-0.676;2023-02-19T03:10:38;102336.16;;;12.80;100.00
21555;BME280;10938;44.794;-0.676;2023-02-19T03:13:11;102340.88;;;11.83;100.00
21555;BME280;10938;44.794;-0.676;2023-02-19T03:16:01;102337.78;;;12.22;100.00
21555;BME280;10938;44.794;-0.676;2023-02-19T03:18:53;102338.41;;;12.13;100.00
21555;BME280;10938;44.794;-0.676;2023-02-19T03:21:38;102342.44;;;12.30;100.00
21555;BME280;10938;44.794;-0.676;2023-02-19T03:24:06;102340.28;;;12.17;100.00
21555;BME280;10938;44.794;-0.676;2023-02-19T03:26:51;102340.88;;;12.64;100.00
21555;BME280;10938;44.794;-0.676;2023-02-19T03:29:20;102344.69;;;12.47;100.00
21555;BME280;10938;44.794;-0.676;2023-02-19T03:31:52;102348.56;;;12.59;100.00
21555;BME280;10938;44.794;-0.676;2023-02-19T03:34:25;102348.03;;;11.89;100.00
21555;BME280;10938;44.794;-0.676;2023-02-19T03:37:01;102347.16;;;12.15;100.00
21555;BME280;10938;44.794;-0.676;2023-02-19T03:39:28;102344.25;;;12.33;100.00
21555;BME280;10938;44.794;-0.676;2023-02-19T03:47:20;102353.75;;;12.58;100.00
21555;BME280;10938;44.794;-0.676;2023-02-19T03:55:11;102356.28;;;12.83;100.00
21555;BME280;10938;44.794;-0.676;2023-02-19T03:58:13;102362.81;;;12.14;100.00
21555;BME280;10938;44.794;-0.676;2023-02-19T04:01:02;102364.13;;;12.01;100.00
21555;BME280;10938;44.794;-0.676;2023-02-19T04:04:08;102364.69;;;11.93;100.00
21555;BME280;10938;44.794;-0.676;2023-02-19T04:06:37;102369.88;;;12.16;100.00
21555;BME280;10938;44.794;-0.676;2023-02-19T04:09:08;102362.84;;;12.15;100.00
21555;BME280;10938;44.794;-0.676;2023-02-19T04:11:39;102362.25;;;12.77;100.00
21555;BME280;10938;44.794;-0.676;2023-02-19T04:14:51;102361.53;;;12.84;100.00
21555;BME280;10938;44.794;-0.676;2023-02-19T04:17:24;102370.19;;;12.82;100.00
21555;BME280;10938;44.794;-0.676;2023-02-19T04:19:52;102366.19;;;12.93;100.00
21555;BME280;10938;44.794;-0.676;2023-02-19T04:22:20;102370.50;;;12.63;100.00
21555;BME280;10938;44.794;-0.676;2023-02-19T04:24:49;102359.47;;;12.73;100.00
21555;BME280;10938;44.794;-0.676;2023-02-19T04:27:15;102367.63;;;13.10;100.00
21555;BME280;10938;44.794;-0.676;2023-02-19T04:29:41;102369.16;;;13.05;100.00
21555;BME280;10938;44.794;-0.676;2023-02-19T04:32:09;102359.00;;;13.46;100.00
21555;BME280;10938;44.794;-0.676;2023-02-19T04:34:34;102369.09;;;13.32;100.00
21555;BME280;10938;44.794;-0.676;2023-02-19T04:37:00;102366.63;;;13.36;100.00
21555;BME280;10938;44.794;-0.676;2023-02-19T04:39:26;102376.56;;;13.18;100.00
21555;BME280;10938;44.794;-0.676;2023-02-19T04:41:51;102374.41;;;13.33;100.00
21555;BME280;10938;44.794;-0.676;2023-02-19T04:44:17;102379.38;;;12.96;100.00
21555;BME280;10938;44.794;-0.676;2023-02-19T04:46:42;102376.41;;;12.85;100.00
21555;BME280;10938;44.794;-0.676;2023-02-19T04:49:07;102371.28;;;12.88;100.00
21555;BME280;10938;44.794;-0.676;2023-02-19T04:51:33;102365.94;;;12.84;100.00
21555;BME280;10938;44.794;-0.676;2023-02-19T04:53:58;102362.47;;;13.13;100.00
21555;BME280;10938;44.794;-0.676;2023-02-19T04:56:24;102364.81;;;13.06;100.00
21555;BME280;10938;44.794;-0.676;2023-02-19T04:58:49;102368.53;;;13.12;100.00
21555;BME280;10938;44.794;-0.676;2023-02-19T05:01:15;102373.66;;;13.39;100.00
21555;BME280;10938;44.794;-0.676;2023-02-19T05:03:40;102365.53;;;13.61;100.00
21555;BME280;10938;44.794;-0.676;2023-02-19T05:06:11;102370.97;;;13.67;100.00
21555;BME280;10938;44.794;-0.676;2023-02-19T05:08:37;102366.31;;;13.57;100.00
21555;BME280;10938;44.794;-0.676;2023-02-19T05:11:04;102373.25;;;13.88;100.00
21555;BME280;10938;44.794;-0.676;2023-02-19T05:13:30;102368.22;;;13.63;100.00
21555;BME280;10938;44.794;-0.676;2023-02-19T05:15:58;102372.47;;;13.92;100.00
21555;BME280;10938;44.794;-0.676;2023-02-19T05:18:24;102369.09;;;14.30;100.00
21555;BME280;10938;44.794;-0.676;2023-02-19T05:20:50;102366.09;;;14.50;100.00
21555;BME280;10938;44.794;-0.676;2023-02-19T05:23:15;102371.59;;;14.62;100.00
21555;BME280;10938;44.794;-0.676;2023-02-19T05:25:41;102375.25;;;14.68;100.00
21555;BME280;10938;44.794;-0.676;2023-02-19T05:28:06;102378.78;;;14.69;100.00
21555;BME280;10938;44.794;-0.676;2023-02-19T05:33:09;102375.94;;;14.99;100.00
21555;BME280;10938;44.794;-0.676;2023-02-19T05:35:42;102370.66;;;14.97;100.00
21555;BME280;10938;44.794;-0.676;2023-02-19T05:38:09;102373.59;;;15.11;100.00
21555;BME280;10938;44.794;-0.676;2023-02-19T05:40:35;102371.25;;;15.24;100.00
21555;BME280;10938;44.794;-0.676;2023-02-19T05:43:00;102377.28;;;15.20;100.00
21555;BME280;10938;44.794;-0.676;2023-02-19T05:45:26;102388.69;;;15.22;100.00
21555;BME280;10938;44.794;-0.676;2023-02-19T05:47:51;102382.75;;;15.31;100.00
21555;BME280;10938;44.794;-0.676;2023-02-19T05:50:17;102382.25;;;15.49;100.00
21555;BME280;10938;44.794;-0.676;2023-02-19T05:52:42;102383.47;;;15.64;100.00
21555;BME280;10938;44.794;-0.676;2023-02-19T05:55:09;102388.84;;;15.72;100.00
21555;BME280;10938;44.794;-0.676;2023-02-19T05:57:42;102386.72;;;15.51;100.00
21555;BME280;10938;44.794;-0.676;2023-02-19T06:00:10;102386.28;;;15.33;100.00
21555;BME280;10938;44.794;-0.676;2023-02-19T06:02:39;102381.25;;;15.43;100.00
21555;BME280;10938;44.794;-0.676;2023-02-19T06:05:06;102381.81;;;15.27;100.00
21555;BME280;10938;44.794;-0.676;2023-02-19T06:07:32;102390.78;;;15.38;100.00
21555;BME280;10938;44.794;-0.676;2023-02-19T06:09:57;102393.66;;;15.49;100.00
21555;BME280;10938;44.794;-0.676;2023-02-19T06:12:23;102392.78;;;15.08;100.00
21555;BME280;10938;44.794;-0.676;2023-02-19T06:14:49;102393.03;;;14.80;100.00
21555;BME280;10938;44.794;-0.676;2023-02-19T06:17:14;102391.16;;;15.13;100.00
21555;BME280;10938;44.794;-0.676;2023-02-19T06:19:40;102383.00;;;14.62;100.00
21555;BME280;10938;44.794;-0.676;2023-02-19T06:22:05;102383.63;;;14.51;100.00
21555;BME280;10938;44.794;-0.676;2023-02-19T06:24:31;102394.09;;;14.51;100.00
21555;BME280;10938;44.794;-0.676;2023-02-19T06:26:57;102390.09;;;14.30;100.00
21555;BME280;10938;44.794;-0.676;2023-02-19T06:29:23;102387.72;;;14.77;100.00
21555;BME280;10938;44.794;-0.676;2023-02-19T06:31:48;102384.69;;;14.99;100.00
21555;BME280;10938;44.794;-0.676;2023-02-19T06:34:14;102387.31;;;15.39;100.00
21555;BME280;10938;44.794;-0.676;2023-02-19T06:36:39;102380.84;;;15.66;100.00
21555;BME280;10938;44.794;-0.676;2023-02-19T06:39:05;102388.69;;;15.63;100.00
21555;BME280;10938;44.794;-0.676;2023-02-19T06:41:31;102393.66;;;15.49;100.00
21555;BME280;10938;44.794;-0.676;2023-02-19T06:43:57;102395.03;;;14.53;100.00
21555;BME280;10938;44.794;-0.676;2023-02-19T06:46:23;102389.69;;;14.50;100.00
21555;BME280;10938;44.794;-0.676;2023-02-19T06:48:48;102397.28;;;14.37;100.00
21555;BME280;10938;44.794;-0.676;2023-02-19T06:51:16;102403.88;;;14.95;100.00
21555;BME280;10938;44.794;-0.676;2023-02-19T06:53:51;102394.53;;;14.69;100.00
21555;BME280;10938;44.794;-0.676;2023-02-19T06:56:31;102404.88;;;14.63;100.00
21555;BME280;10938;44.794;-0.676;2023-02-19T06:59:00;102409.38;;;14.67;100.00
21555;BME280;10938;44.794;-0.676;2023-02-19T07:01:28;102407.13;;;14.13;100.00
21555;BME280;10938;44.794;-0.676;2023-02-19T07:03:54;102407.84;;;14.78;100.00
21555;BME280;10938;44.794;-0.676;2023-02-19T07:06:21;102409.88;;;14.52;100.00
21555;BME280;10938;44.794;-0.676;2023-02-19T07:08:47;102416.97;;;14.56;100.00
21555;BME280;10938;44.794;-0.676;2023-02-19T07:11:13;102410.34;;;14.72;100.00
21555;BME280;10938;44.794;-0.676;2023-02-19T07:13:38;102410.84;;;15.33;100.00
21555;BME280;10938;44.794;-0.676;2023-02-19T07:16:07;102415.31;;;15.39;100.00
21555;BME280;10938;44.794;-0.676;2023-02-19T07:18:36;102414.53;;;15.43;100.00
21555;BME280;10938;44.794;-0.676;2023-02-19T07:21:07;102407.25;;;15.30;100.00
21555;BME280;10938;44.794;-0.676;2023-02-19T07:23:35;102416.81;;;15.26;100.00
21555;BME280;10938;44.794;-0.676;2023-02-19T07:26:01;102422.31;;;15.38;100.00
21555;BME280;10938;44.794;-0.676;2023-02-19T07:28:27;102423.88;;;14.53;100.00
21555;BME280;10938;44.794;-0.676;2023-02-19T07:30:53;102431.34;;;14.36;100.00
21555;BME280;10938;44.794;-0.676;2023-02-19T07:33:23;102432.03;;;15.02;100.00
21555;BME280;10938;44.794;-0.676;2023-02-19T07:35:49;102426.38;;;15.23;100.00
21555;BME280;10938;44.794;-0.676;2023-02-19T07:38:21;102432.84;;;15.80;100.00
21555;BME280;10938;44.794;-0.676;2023-02-19T07:40:59;102436.28;;;16.24;100.00
21555;BME280;10938;44.794;-0.676;2023-02-19T07:43:26;102432.50;;;16.60;100.00
21555;BME280;10938;44.794;-0.676;2023-02-19T07:45:52;102427.59;;;16.82;100.00
21555;BME280;10938;44.794;-0.676;2023-02-19T07:48:18;102432.09;;;16.89;100.00
21555;BME280;10938;44.794;-0.676;2023-02-19T07:50:55;102440.84;;;16.87;100.00
21555;BME280;10938;44.794;-0.676;2023-02-19T07:53:22;102439.78;;;16.74;100.00
21555;BME280;10938;44.794;-0.676;2023-02-19T07:55:48;102440.06;;;16.94;100.00
21555;BME280;10938;44.794;-0.676;2023-02-19T07:58:14;102437.44;;;16.94;100.00
21555;BME280;10938;44.794;-0.676;2023-02-19T08:00:40;102452.41;;;16.96;100.00
21555;BME280;10938;44.794;-0.676;2023-02-19T08:03:06;102454.38;;;17.11;100.00
21555;BME280;10938;44.794;-0.676;2023-02-19T08:05:33;102460.66;;;17.22;100.00
21555;BME280;10938;44.794;-0.676;2023-02-19T08:08:01;102457.78;;;17.06;100.00
21555;BME280;10938;44.794;-0.676;2023-02-19T08:10:27;102459.81;;;17.25;100.00
21555;BME280;10938;44.794;-0.676;2023-02-19T08:13:13;102461.78;;;17.39;100.00
21555;BME280;10938;44.794;-0.676;2023-02-19T08:18:29;102481.00;;;17.32;100.00
21555;BME280;10938;44.794;-0.676;2023-02-19T08:20:56;102496.72;;;16.21;100.00
21555;BME280;10938;44.794;-0.676;2023-02-19T08:23:22;102497.31;;;15.62;100.00
21555;BME280;10938;44.794;-0.676;2023-02-19T08:25:49;102494.25;;;15.82;100.00
21555;BME280;10938;44.794;-0.676;2023-02-19T08:28:15;102501.56;;;15.97;100.00
21555;BME280;10938;44.794;-0.676;2023-02-19T08:30:41;102497.53;;;16.16;100.00
21555;BME280;10938;44.794;-0.676;2023-02-19T08:33:10;102511.84;;;16.31;100.00
21555;BME280;10938;44.794;-0.676;2023-02-19T08:35:36;102518.94;;;15.49;100.00
21555;BME280;10938;44.794;-0.676;2023-02-19T08:38:02;102523.09;;;16.23;100.00
21555;BME280;10938;44.794;-0.676;2023-02-19T08:40:32;102514.41;;;16.27;100.00
21555;BME280;10938;44.794;-0.676;2023-02-19T08:43:11;102519.69;;;15.43;100.00
21555;BME280;10938;44.794;-0.676;2023-02-19T08:45:39;102524.31;;;15.95;100.00
21555;BME280;10938;44.794;-0.676;2023-02-19T08:48:05;102526.13;;;16.44;100.00
21555;BME280;10938;44.794;-0.676;2023-02-19T08:50:31;102522.41;;;16.33;100.00
21555;BME280;10938;44.794;-0.676;2023-02-19T08:53:00;102526.34;;;16.10;100.00
21555;BME280;10938;44.794;-0.676;2023-02-19T08:55:26;102523.47;;;16.92;100.00
21555;BME280;10938;44.794;-0.676;2023-02-19T08:57:52;102524.78;;;17.21;100.00
21555;BME280;10938;44.794;-0.676;2023-02-19T09:00:17;102544.00;;;16.62;100.00
21555;BME280;10938;44.794;-0.676;2023-02-19T09:02:43;102539.19;;;15.51;100.00
21555;BME280;10938;44.794;-0.676;2023-02-19T09:08:50;102542.31;;;16.17;100.00
21555;BME280;10938;44.794;-0.676;2023-02-19T09:11:16;102553.56;;;16.55;100.00
21555;BME280;10938;44.794;-0.676;2023-02-19T09:13:42;102552.69;;;16.11;100.00
21555;BME280;10938;44.794;-0.676;2023-02-19T09:16:07;102551.53;;;15.19;100.00
21555;BME280;10938;44.794;-0.676;2023-02-19T09:18:33;102545.06;;;15.42;100.00
21555;BME280;10938;44.794;-0.676;2023-02-19T09:21:01;102547.19;;;15.20;100.00
21555;BME280;10938;44.794;-0.676;2023-02-19T09:23:27;102544.88;;;15.72;100.00
21555;BME280;10938;44.794;-0.676;2023-02-19T09:25:59;102550.59;;;14.80;100.00
21555;BME280;10938;44.794;-0.676;2023-02-19T09:28:25;102548.78;;;15.13;100.00
21555;BME280;10938;44.794;-0.676;2023-02-19T09:30:50;102561.28;;;15.25;100.00
21555;BME280;10938;44.794;-0.676;2023-02-19T09:33:16;102559.97;;;15.06;100.00
21555;BME280;10938;44.794;-0.676;2023-02-19T09:35:41;102557.66;;;15.56;100.00
21555;BME280;10938;44.794;-0.676;2023-02-19T09:38:07;102553.16;;;15.50;100.00
21555;BME280;10938;44.794;-0.676;2023-02-19T09:40:36;102573.22;;;15.85;100.00
21555;BME280;10938;44.794;-0.676;2023-02-19T09:43:06;102575.88;;;15.87;100.00
21555;BME280;10938;44.794;-0.676;2023-02-19T09:45:34;102577.63;;;15.48;100.00
21555;BME280;10938;44.794;-0.676;2023-02-19T09:48:00;102585.56;;;15.15;100.00
21555;BME280;10938;44.794;-0.676;2023-02-19T09:50:33;102585.44;;;16.25;100.00
21555;BME280;10938;44.794;-0.676;2023-02-19T09:53:04;102580.09;;;15.79;100.00
21555;BME280;10938;44.794;-0.676;2023-02-19T09:55:35;102579.31;;;15.83;100.00
21555;BME280;10938;44.794;-0.676;2023-02-19T09:58:35;102573.56;;;15.62;100.00
21555;BME280;10938;44.794;-0.676;2023-02-19T10:01:03;102579.41;;;15.87;100.00
21555;BME280;10938;44.794;-0.676;2023-02-19T10:03:32;102582.72;;;15.79;100.00
21555;BME280;10938;44.794;-0.676;2023-02-19T10:06:02;102586.50;;;15.51;100.00
21555;BME280;10938;44.794;-0.676;2023-02-19T10:08:32;102582.91;;;15.88;100.00
21555;BME280;10938;44.794;-0.676;2023-02-19T10:11:01;102585.06;;;16.07;100.00
21555;BME280;10938;44.794;-0.676;2023-02-19T10:13:38;102593.25;;;16.22;100.00
21555;BME280;10938;44.794;-0.676;2023-02-19T10:16:08;102583.56;;;16.20;100.00
21555;BME280;10938;44.794;-0.676;2023-02-19T10:18:40;102583.22;;;16.03;100.00
21555;BME280;10938;44.794;-0.676;2023-02-19T10:21:13;102584.78;;;15.55;100.00
21555;BME280;10938;44.794;-0.676;2023-02-19T10:23:40;102587.59;;;15.61;100.00
21555;BME280;10938;44.794;-0.676;2023-02-19T10:26:06;102584.50;;;15.80;100.00
21555;BME280;10938;44.794;-0.676;2023-02-19T10:28:34;102600.69;;;15.23;100.00
21555;BME280;10938;44.794;-0.676;2023-02-19T10:31:02;102587.28;;;15.49;100.00
21555;BME280;10938;44.794;-0.676;2023-02-19T10:33:28;102599.00;;;15.63;100.00
21555;BME280;10938;44.794;-0.676;2023-02-19T10:35:59;102601.03;;;15.38;100.00
21555;BME280;10938;44.794;-0.676;2023-02-19T10:38:38;102608.59;;;15.25;100.00
21555;BME280;10938;44.794;-0.676;2023-02-19T10:41:07;102608.28;;;14.77;100.00
21555;BME280;10938;44.794;-0.676;2023-02-19T10:43:38;102616.59;;;15.29;100.00
21555;BME280;10938;44.794;-0.676;2023-02-19T10:46:18;102615.38;;;15.50;100.00
21555;BME280;10938;44.794;-0.676;2023-02-19T10:48:55;102613.28;;;15.36;100.00
21555;BME280;10938;44.794;-0.676;2023-02-19T10:51:42;102610.59;;;15.71;100.00
21555;BME280;10938;44.794;-0.676;2023-02-19T10:54:33;102601.66;;;16.03;100.00
21555;BME280;10938;44.794;-0.676;2023-02-19T10:57:32;102607.94;;;15.69;100.00
21555;BME280;10938;44.794;-0.676;2023-02-19T11:00:16;102609.72;;;15.72;100.00
21555;BME280;10938;44.794;-0.676;2023-02-19T11:02:44;102610.72;;;15.39;100.00
21555;BME280;10938;44.794;-0.676;2023-02-19T11:07:44;102609.72;;;15.70;100.00
21555;BME280;10938;44.794;-0.676;2023-02-19T11:10:34;102601.22;;;15.83;100.00
21555;BME280;10938;44.794;-0.676;2023-02-19T11:13:03;102611.63;;;15.41;100.00
21555;BME280;10938;44.794;-0.676;2023-02-19T11:15:34;102612.91;;;15.96;100.00
21555;BME280;10938;44.794;-0.676;2023-02-19T11:25:50;102609.06;;;17.71;100.00
21555;BME280;10938;44.794;-0.676;2023-02-19T11:28:38;102614.72;;;16.87;100.00
21555;BME280;10938;44.794;-0.676;2023-02-19T11:31:33;102607.50;;;17.29;100.00
21555;BME280;10938;44.794;-0.676;2023-02-19T11:36:40;102597.41;;;18.23;100.00
21555;BME280;10938;44.794;-0.676;2023-02-19T11:50:38;102576.16;;;17.47;100.00
21555;BME280;10938;44.794;-0.676;2023-02-19T11:53:32;102575.31;;;17.51;100.00
21555;BME280;10938;44.794;-0.676;2023-02-19T11:56:09;102566.09;;;17.81;100.00
21555;BME280;10938;44.794;-0.676;2023-02-19T12:23:32;102514.91;;;19.66;100.00
21555;BME280;10938;44.794;-0.676;2023-02-19T12:51:11;102494.84;;;20.83;91.14
21555;BME280;10938;44.794;-0.676;2023-02-19T12:53:52;102483.41;;;20.61;94.74
21555;BME280;10938;44.794;-0.676;2023-02-19T12:56:25;102483.28;;;21.44;89.97
21555;BME280;10938;44.794;-0.676;2023-02-19T12:58:59;102474.47;;;21.35;89.83
21555;BME280;10938;44.794;-0.676;2023-02-19T13:01:47;102480.72;;;20.84;91.89
21555;BME280;10938;44.794;-0.676;2023-02-19T13:04:23;102473.44;;;19.62;96.82
21555;BME280;10938;44.794;-0.676;2023-02-19T13:09:40;102464.47;;;19.32;98.12
21555;BME280;10938;44.794;-0.676;2023-02-19T13:12:16;102465.38;;;19.34;99.71
21555;BME280;10938;44.794;-0.676;2023-02-19T13:14:46;102457.44;;;19.34;100.00
21555;BME280;10938;44.794;-0.676;2023-02-19T13:17:46;102450.38;;;19.36;99.76
21555;BME280;10938;44.794;-0.676;2023-02-19T13:20:34;102442.69;;;20.11;94.86
21555;BME280;10938;44.794;-0.676;2023-02-19T13:23:28;102443.56;;;20.00;95.73
21555;BME280;10938;44.794;-0.676;2023-02-19T13:37:24;102428.50;;;19.65;96.00
21555;BME280;10938;44.794;-0.676;2023-02-19T13:39:52;102423.25;;;20.02;96.84
21555;BME280;10938;44.794;-0.676;2023-02-19T13:42:32;102417.09;;;20.10;96.34
21555;BME280;10938;44.794;-0.676;2023-02-19T13:45:01;102418.00;;;20.49;92.87
21555;BME280;10938;44.794;-0.676;2023-02-19T13:50:31;102415.38;;;20.65;91.24
21555;BME280;10938;44.794;-0.676;2023-02-19T13:52:58;102415.34;;;20.21;93.36
21555;BME280;10938;44.794;-0.676;2023-02-19T14:06:05;102406.28;;;19.32;98.49
21555;BME280;10938;44.794;-0.676;2023-02-19T14:11:17;102390.53;;;19.72;96.65
21555;BME280;10938;44.794;-0.676;2023-02-19T14:14:02;102388.81;;;19.95;95.02
21555;BME280;10938;44.794;-0.676;2023-02-19T14:30:49;102376.44;;;19.67;96.69
21555;BME280;10938;44.794;-0.676;2023-02-19T14:33:18;102375.25;;;18.96;100.00
21555;BME280;10938;44.794;-0.676;2023-02-19T14:35:47;102375.53;;;19.59;97.37
21555;BME280;10938;44.794;-0.676;2023-02-19T14:38:21;102372.06;;;19.94;95.60
21555;BME280;10938;44.794;-0.676;2023-02-19T14:40:49;102373.75;;;19.47;98.15
21555;BME280;10938;44.794;-0.676;2023-02-19T14:43:18;102365.91;;;20.08;95.02
21555;BME280;10938;44.794;-0.676;2023-02-19T14:45:52;102368.53;;;20.15;94.64
21555;BME280;10938;44.794;-0.676;2023-02-19T14:48:26;102365.00;;;19.83;96.40
21555;BME280;10938;44.794;-0.676;2023-02-19T14:50:56;102365.03;;;20.01;95.67
21555;BME280;10938;44.794;-0.676;2023-02-19T14:53:23;102360.28;;;18.91;100.00
21555;BME280;10938;44.794;-0.676;2023-02-19T14:55:50;102357.06;;;19.80;96.76
21555;BME280;10938;44.794;-0.676;2023-02-19T14:58:32;102355.31;;;20.04;95.33
21555;BME280;10938;44.794;-0.676;2023-02-19T15:00:58;102360.56;;;19.64;96.95
21555;BME280;10938;44.794;-0.676;2023-02-19T15:03:48;102363.16;;;19.47;97.21
21555;BME280;10938;44.794;-0.676;2023-02-19T15:06:14;102356.56;;;18.62;100.00
21555;BME280;10938;44.794;-0.676;2023-02-19T15:08:45;102357.50;;;18.70;100.00
21555;BME280;10938;44.794;-0.676;2023-02-19T15:11:21;102355.91;;;18.97;100.00
21555;BME280;10938;44.794;-0.676;2023-02-19T15:14:17;102352.25;;;18.71;99.51
21555;BME280;10938;44.794;-0.676;2023-02-19T15:16:43;102349.22;;;18.21;100.00
21555;BME280;10938;44.794;-0.676;2023-02-19T15:19:11;102349.47;;;18.53;100.00
21555;BME280;10938;44.794;-0.676;2023-02-19T15:21:43;102349.84;;;19.21;97.71
21555;BME280;10938;44.794;-0.676;2023-02-19T15:24:13;102342.69;;;19.02;98.54
21555;BME280;10938;44.794;-0.676;2023-02-19T15:26:41;102358.50;;;18.93;99.29
21555;BME280;10938;44.794;-0.676;2023-02-19T15:29:13;102361.06;;;17.68;100.00